Wapella, Canada
Current Conditions -  °F | °C
As of 4:00 PM on Friday 31 Oct 2014 (Local Time) from CYQV Reporting Station
Overcast Overcast  
Wind Chill: 25°   Ceiling: 12000
Heat Index: 36°   Visibility: 9mi
Dew Point: 23°   Wind: 20mph
Humidity: 60%   Direction: 150°SSE
Pressure: 30.02"   Gusts: 26mph
Location:  50.25°N, 101.97°W
Report Text: CYQV 312200Z AUTO 15017G23KT 9SM OVC120 02/M05 A3002 RMK PRESFR SLP193
Loading
Personal Weather Stations






























Interactive Weather Map
Tropical Storm Tracking
New forecast layout! Learn more

10-Day Weather Forecast

Advertisements
Track Severe Weather on mobile